TimeCDT,TemperatureF,Dew PointF,Humidity,Sea Level PressureIn,VisibilityMPH,Wind Direction,Wind SpeedMPH,Gust SpeedMPH,PrecipitationIn,Events,Conditions,WindDirDegrees,DateUTC
12:53 AM,64.0,48.9,58,29.75,10.0,SSE,11.5,-,N/A,,Scattered Clouds,160,2013-04-14 05:53:00
1:53 AM,60.1,50.0,69,29.75,10.0,South,6.9,-,N/A,,Mostly Cloudy,190,2013-04-14 06:53:00
2:53 AM,60.1,48.9,67,29.72,10.0,South,11.5,-,N/A,,Mostly Cloudy,180,2013-04-14 07:53:00
3:53 AM,61.0,48.0,62,29.69,10.0,South,10.4,-,N/A,,Partly Cloudy,170,2013-04-14 08:53:00
4:53 AM,57.0,48.0,72,29.68,10.0,South,6.9,-,N/A,,Clear,170,2013-04-14 09:53:00
5:53 AM,55.9,48.9,77,29.68,10.0,South,8.1,-,N/A,,Clear,190,2013-04-14 10:53:00
6:53 AM,57.9,51.1,78,29.68,10.0,South,11.5,-,N/A,,Partly Cloudy,180,2013-04-14 11:53:00
7:53 AM,60.1,53.1,78,29.68,10.0,South,11.5,-,N/A,,Clear,170,2013-04-14 12:53:00
8:53 AM,63.0,55.9,78,29.70,10.0,South,16.1,21.9,N/A,,Partly Cloudy,180,2013-04-14 13:53:00
9:53 AM,64.9,55.9,73,29.67,10.0,South,16.1,-,N/A,,Partly Cloudy,170,2013-04-14 14:53:00
10:53 AM,68.0,55.9,65,29.67,10.0,South,13.8,-,N/A,,Clear,170,2013-04-14 15:53:00
11:53 AM,71.1,57.0,61,29.64,10.0,SSE,21.9,25.3,N/A,,Clear,150,2013-04-14 16:53:00
12:53 PM,73.9,57.9,57,29.62,10.0,South,23.0,28.8,N/A,,Partly Cloudy,190,2013-04-14 17:53:00
1:53 PM,75.9,60.1,58,29.60,10.0,South,18.4,29.9,N/A,,Partly Cloudy,170,2013-04-14 18:53:00
2:53 PM,78.8,60.8,54,29.59,10.0,South,16.1,26.5,N/A,,Scattered Clouds,170,2013-04-14 19:53:00
3:53 PM,80.1,62.1,54,29.55,10.0,South,18.4,26.5,N/A,,Scattered Clouds,190,2013-04-14 20:53:00
4:53 PM,81.0,63.0,54,29.53,10.0,South,19.6,-,N/A,,Partly Cloudy,170,2013-04-14 21:53:00
5:53 PM,80.1,63.0,56,29.52,10.0,South,21.9,-,N/A,,Partly Cloudy,170,2013-04-14 22:53:00
6:53 PM,77.0,64.0,64,29.53,10.0,SSE,19.6,23.0,N/A,,Partly Cloudy,160,2013-04-14 23:53:00
7:53 PM,75.0,63.0,66,29.54,10.0,SSE,13.8,-,N/A,,Partly Cloudy,160,2013-04-15 00:53:00
8:53 PM,73.9,63.0,68,29.55,10.0,SSE,17.3,21.9,N/A,,Partly Cloudy,160,2013-04-15 01:53:00
9:53 PM,73.9,63.0,68,29.57,10.0,SSE,16.1,-,N/A,,Clear,160,2013-04-15 02:53:00
10:53 PM,73.0,63.0,71,29.59,10.0,SSE,12.7,-,N/A,,Clear,160,2013-04-15 03:53:00
11:53 PM,72.0,64.0,76,29.59,10.0,SSE,15.0,-,N/A,,Clear,160,2013-04-15 04:53:00